sensor_id;sensor_type;location;lat;lon;timestamp;P1;durP1;ratioP1;P2;durP2;ratioP2
74624;SDS011;63131;52.298;8.056;2023-07-13T00:01:03;6.63;;;2.55;;
74624;SDS011;63131;52.298;8.056;2023-07-13T00:03:28;6.00;;;2.47;;
74624;SDS011;63131;52.298;8.056;2023-07-13T00:06:00;5.70;;;2.28;;
74624;SDS011;63131;52.298;8.056;2023-07-13T00:08:25;8.38;;;2.50;;
74624;SDS011;63131;52.298;8.056;2023-07-13T00:10:51;6.63;;;2.43;;
74624;SDS011;63131;52.298;8.056;2023-07-13T00:13:19;5.53;;;2.22;;
74624;SDS011;63131;52.298;8.056;2023-07-13T00:15:44;7.10;;;2.50;;
74624;SDS011;63131;52.298;8.056;2023-07-13T00:18:09;7.20;;;2.50;;
74624;SDS011;63131;52.298;8.056;2023-07-13T00:20:34;5.83;;;1.90;;
74624;SDS011;63131;52.298;8.056;2023-07-13T00:23:00;8.38;;;2.08;;
74624;SDS011;63131;52.298;8.056;2023-07-13T00:27:52;6.20;;;2.28;;
74624;SDS011;63131;52.298;8.056;2023-07-13T00:30:18;6.90;;;2.00;;
74624;SDS011;63131;52.298;8.056;2023-07-13T00:32:43;7.00;;;2.63;;
74624;SDS011;63131;52.298;8.056;2023-07-13T00:35:08;9.43;;;2.22;;
74624;SDS011;63131;52.298;8.056;2023-07-13T00:37:34;6.25;;;2.60;;
74624;SDS011;63131;52.298;8.056;2023-07-13T00:40:00;6.18;;;2.20;;
74624;SDS011;63131;52.298;8.056;2023-07-13T00:42:25;8.10;;;2.50;;
74624;SDS011;63131;52.298;8.056;2023-07-13T00:47:35;6.65;;;2.28;;
74624;SDS011;63131;52.298;8.056;2023-07-13T00:50:00;9.57;;;2.20;;
74624;SDS011;63131;52.298;8.056;2023-07-13T00:52:26;7.13;;;2.33;;
74624;SDS011;63131;52.298;8.056;2023-07-13T00:54:52;6.63;;;2.13;;
74624;SDS011;63131;52.298;8.056;2023-07-13T00:57:18;7.97;;;2.20;;
74624;SDS011;63131;52.298;8.056;2023-07-13T00:59:46;5.07;;;2.17;;
74624;SDS011;63131;52.298;8.056;2023-07-13T01:02:12;6.22;;;2.35;;
74624;SDS011;63131;52.298;8.056;2023-07-13T01:07:05;7.82;;;2.47;;
74624;SDS011;63131;52.298;8.056;2023-07-13T01:09:31;7.38;;;2.53;;
74624;SDS011;63131;52.298;8.056;2023-07-13T01:11:56;6.17;;;1.93;;
74624;SDS011;63131;52.298;8.056;2023-07-13T01:14:22;14.15;;;2.63;;
74624;SDS011;63131;52.298;8.056;2023-07-13T01:16:47;8.20;;;2.17;;
74624;SDS011;63131;52.298;8.056;2023-07-13T01:19:19;5.88;;;2.05;;
74624;SDS011;63131;52.298;8.056;2023-07-13T01:21:49;7.05;;;2.17;;
74624;SDS011;63131;52.298;8.056;2023-07-13T01:24:14;6.72;;;2.10;;
74624;SDS011;63131;52.298;8.056;2023-07-13T01:26:40;6.30;;;1.77;;
74624;SDS011;63131;52.298;8.056;2023-07-13T01:31:30;7.43;;;2.30;;
74624;SDS011;63131;52.298;8.056;2023-07-13T01:33:55;7.07;;;1.97;;
74624;SDS011;63131;52.298;8.056;2023-07-13T01:36:22;7.10;;;1.90;;
74624;SDS011;63131;52.298;8.056;2023-07-13T01:38:47;5.67;;;2.20;;
74624;SDS011;63131;52.298;8.056;2023-07-13T01:43:37;5.40;;;1.80;;
74624;SDS011;63131;52.298;8.056;2023-07-13T01:48:28;7.10;;;2.20;;
74624;SDS011;63131;52.298;8.056;2023-07-13T01:50:53;4.77;;;1.93;;
74624;SDS011;63131;52.298;8.056;2023-07-13T01:55:43;7.10;;;1.88;;
74624;SDS011;63131;52.298;8.056;2023-07-13T02:00:34;5.85;;;1.80;;
74624;SDS011;63131;52.298;8.056;2023-07-13T02:05:24;6.18;;;1.95;;
74624;SDS011;63131;52.298;8.056;2023-07-13T02:10:15;6.30;;;2.57;;
74624;SDS011;63131;52.298;8.056;2023-07-13T02:15:05;8.32;;;2.60;;
74624;SDS011;63131;52.298;8.056;2023-07-13T02:19:56;6.47;;;2.65;;
74624;SDS011;63131;52.298;8.056;2023-07-13T02:24:46;5.47;;;2.00;;
74624;SDS011;63131;52.298;8.056;2023-07-13T02:29:36;8.38;;;2.05;;
74624;SDS011;63131;52.298;8.056;2023-07-13T02:34:27;6.72;;;1.90;;
74624;SDS011;63131;52.298;8.056;2023-07-13T02:39:18;10.23;;;2.28;;
74624;SDS011;63131;52.298;8.056;2023-07-13T02:44:08;7.45;;;2.35;;
74624;SDS011;63131;52.298;8.056;2023-07-13T02:46:34;7.63;;;2.70;;
74624;SDS011;63131;52.298;8.056;2023-07-13T02:49:00;8.32;;;2.55;;
74624;SDS011;63131;52.298;8.056;2023-07-13T02:53:50;6.97;;;2.15;;
74624;SDS011;63131;52.298;8.056;2023-07-13T02:58:41;7.65;;;2.10;;
74624;SDS011;63131;52.298;8.056;2023-07-13T03:03:32;5.65;;;1.75;;
74624;SDS011;63131;52.298;8.056;2023-07-13T03:05:58;8.57;;;2.00;;
74624;SDS011;63131;52.298;8.056;2023-07-13T03:08:25;7.85;;;2.10;;
74624;SDS011;63131;52.298;8.056;2023-07-13T03:10:58;6.63;;;2.05;;
74624;SDS011;63131;52.298;8.056;2023-07-13T03:13:23;10.77;;;2.58;;
74624;SDS011;63131;52.298;8.056;2023-07-13T03:18:13;8.23;;;3.33;;
74624;SDS011;63131;52.298;8.056;2023-07-13T03:23:04;8.30;;;2.03;;
74624;SDS011;63131;52.298;8.056;2023-07-13T03:25:29;7.03;;;2.10;;
74624;SDS011;63131;52.298;8.056;2023-07-13T03:30:19;5.10;;;2.15;;
74624;SDS011;63131;52.298;8.056;2023-07-13T03:32:45;8.20;;;2.10;;
74624;SDS011;63131;52.298;8.056;2023-07-13T03:35:11;8.63;;;2.22;;
74624;SDS011;63131;52.298;8.056;2023-07-13T03:37:36;8.77;;;1.90;;
74624;SDS011;63131;52.298;8.056;2023-07-13T03:40:07;10.52;;;2.13;;
74624;SDS011;63131;52.298;8.056;2023-07-13T03:42:34;8.45;;;2.63;;
74624;SDS011;63131;52.298;8.056;2023-07-13T03:44:59;7.57;;;2.37;;
74624;SDS011;63131;52.298;8.056;2023-07-13T03:49:49;12.48;;;3.10;;
74624;SDS011;63131;52.298;8.056;2023-07-13T03:54:40;6.93;;;2.10;;
74624;SDS011;63131;52.298;8.056;2023-07-13T03:59:30;6.97;;;1.97;;
74624;SDS011;63131;52.298;8.056;2023-07-13T04:01:55;5.70;;;2.07;;
74624;SDS011;63131;52.298;8.056;2023-07-13T04:06:45;6.70;;;2.00;;
74624;SDS011;63131;52.298;8.056;2023-07-13T04:11:36;7.95;;;2.70;;
74624;SDS011;63131;52.298;8.056;2023-07-13T04:16:27;10.40;;;2.95;;
74624;SDS011;63131;52.298;8.056;2023-07-13T04:18:52;7.27;;;2.27;;
74624;SDS011;63131;52.298;8.056;2023-07-13T04:21:24;7.32;;;2.75;;
74624;SDS011;63131;52.298;8.056;2023-07-13T04:23:49;6.53;;;2.50;;
74624;SDS011;63131;52.298;8.056;2023-07-13T04:28:40;7.88;;;2.35;;
74624;SDS011;63131;52.298;8.056;2023-07-13T04:33:30;5.88;;;1.83;;
74624;SDS011;63131;52.298;8.056;2023-07-13T04:35:55;7.27;;;2.40;;
74624;SDS011;63131;52.298;8.056;2023-07-13T04:38:26;6.78;;;2.55;;
74624;SDS011;63131;52.298;8.056;2023-07-13T04:40:53;8.35;;;2.50;;
74624;SDS011;63131;52.298;8.056;2023-07-13T04:43:19;7.40;;;1.88;;
74624;SDS011;63131;52.298;8.056;2023-07-13T04:45:44;8.60;;;2.00;;
74624;SDS011;63131;52.298;8.056;2023-07-13T04:50:37;8.48;;;2.50;;
74624;SDS011;63131;52.298;8.056;2023-07-13T04:53:03;7.95;;;2.42;;
74624;SDS011;63131;52.298;8.056;2023-07-13T04:55:29;7.95;;;2.30;;
74624;SDS011;63131;52.298;8.056;2023-07-13T04:57:55;7.25;;;2.50;;
74624;SDS011;63131;52.298;8.056;2023-07-13T05:02:46;5.88;;;1.88;;
74624;SDS011;63131;52.298;8.056;2023-07-13T05:07:36;6.32;;;1.98;;
74624;SDS011;63131;52.298;8.056;2023-07-13T05:10:02;6.17;;;1.97;;
74624;SDS011;63131;52.298;8.056;2023-07-13T05:12:28;7.90;;;2.20;;
74624;SDS011;63131;52.298;8.056;2023-07-13T05:14:54;8.30;;;2.00;;
74624;SDS011;63131;52.298;8.056;2023-07-13T05:19:44;4.97;;;1.83;;
74624;SDS011;63131;52.298;8.056;2023-07-13T05:22:09;7.23;;;1.97;;
74624;SDS011;63131;52.298;8.056;2023-07-13T05:24:35;9.90;;;2.33;;
74624;SDS011;63131;52.298;8.056;2023-07-13T05:27:00;7.15;;;2.20;;
74624;SDS011;63131;52.298;8.056;2023-07-13T05:29:25;8.57;;;2.23;;
74624;SDS011;63131;52.298;8.056;2023-07-13T05:31:51;6.80;;;2.30;;
74624;SDS011;63131;52.298;8.056;2023-07-13T05:34:16;8.23;;;2.20;;
74624;SDS011;63131;52.298;8.056;2023-07-13T05:36:41;5.30;;;2.07;;
74624;SDS011;63131;52.298;8.056;2023-07-13T05:39:07;6.97;;;2.15;;
74624;SDS011;63131;52.298;8.056;2023-07-13T05:41:32;7.28;;;2.10;;
74624;SDS011;63131;52.298;8.056;2023-07-13T05:43:57;10.87;;;2.57;;
74624;SDS011;63131;52.298;8.056;2023-07-13T05:46:22;9.80;;;2.40;;
74624;SDS011;63131;52.298;8.056;2023-07-13T05:48:47;7.90;;;2.13;;
74624;SDS011;63131;52.298;8.056;2023-07-13T05:51:13;6.30;;;2.30;;
74624;SDS011;63131;52.298;8.056;2023-07-13T05:53:38;6.65;;;2.15;;
74624;SDS011;63131;52.298;8.056;2023-07-13T05:56:03;10.77;;;2.40;;
74624;SDS011;63131;52.298;8.056;2023-07-13T05:58:29;7.60;;;2.30;;
74624;SDS011;63131;52.298;8.056;2023-07-13T06:01:04;6.93;;;2.10;;
74624;SDS011;63131;52.298;8.056;2023-07-13T06:03:30;6.72;;;2.00;;
74624;SDS011;63131;52.298;8.056;2023-07-13T06:05:55;8.20;;;2.23;;
74624;SDS011;63131;52.298;8.056;2023-07-13T06:10:45;7.43;;;2.22;;
74624;SDS011;63131;52.298;8.056;2023-07-13T06:13:10;9.63;;;2.20;;
74624;SDS011;63131;52.298;8.056;2023-07-13T06:15:35;9.00;;;2.30;;
74624;SDS011;63131;52.298;8.056;2023-07-13T06:18:01;6.50;;;2.20;;
74624;SDS011;63131;52.298;8.056;2023-07-13T06:20:26;6.73;;;1.87;;
74624;SDS011;63131;52.298;8.056;2023-07-13T06:22:51;6.97;;;2.10;;
74624;SDS011;63131;52.298;8.056;2023-07-13T06:25:16;5.93;;;2.10;;
74624;SDS011;63131;52.298;8.056;2023-07-13T06:27:42;5.82;;;1.92;;
74624;SDS011;63131;52.298;8.056;2023-07-13T06:30:07;7.50;;;2.13;;
74624;SDS011;63131;52.298;8.056;2023-07-13T06:32:33;7.82;;;3.45;;
74624;SDS011;63131;52.298;8.056;2023-07-13T06:34:58;9.07;;;2.03;;
74624;SDS011;63131;52.298;8.056;2023-07-13T06:39:48;8.05;;;2.33;;
74624;SDS011;63131;52.298;8.056;2023-07-13T06:42:15;7.80;;;2.40;;
74624;SDS011;63131;52.298;8.056;2023-07-13T06:44:40;10.35;;;3.03;;
74624;SDS011;63131;52.298;8.056;2023-07-13T06:47:06;6.37;;;2.00;;
74624;SDS011;63131;52.298;8.056;2023-07-13T06:49:31;7.97;;;2.37;;
74624;SDS011;63131;52.298;8.056;2023-07-13T06:51:56;9.97;;;2.53;;
74624;SDS011;63131;52.298;8.056;2023-07-13T06:54:21;7.43;;;2.53;;
74624;SDS011;63131;52.298;8.056;2023-07-13T06:59:12;8.65;;;2.30;;
74624;SDS011;63131;52.298;8.056;2023-07-13T07:01:37;8.70;;;3.00;;
74624;SDS011;63131;52.298;8.056;2023-07-13T07:04:03;10.80;;;2.47;;
74624;SDS011;63131;52.298;8.056;2023-07-13T07:06:28;7.10;;;2.38;;
74624;SDS011;63131;52.298;8.056;2023-07-13T07:08:53;8.15;;;2.28;;
74624;SDS011;63131;52.298;8.056;2023-07-13T07:11:20;9.13;;;2.70;;
74624;SDS011;63131;52.298;8.056;2023-07-13T07:13:47;9.30;;;2.90;;
74624;SDS011;63131;52.298;8.056;2023-07-13T07:16:12;8.45;;;3.03;;
74624;SDS011;63131;52.298;8.056;2023-07-13T07:21:13;10.15;;;2.92;;
74624;SDS011;63131;52.298;8.056;2023-07-13T07:23:38;9.27;;;2.00;;
74624;SDS011;63131;52.298;8.056;2023-07-13T07:26:04;10.33;;;3.03;;
74624;SDS011;63131;52.298;8.056;2023-07-13T07:28:29;8.13;;;2.30;;
74624;SDS011;63131;52.298;8.056;2023-07-13T07:30:55;7.23;;;2.50;;
74624;SDS011;63131;52.298;8.056;2023-07-13T07:33:21;13.32;;;3.63;;
74624;SDS011;63131;52.298;8.056;2023-07-13T07:35:46;7.17;;;2.27;;
74624;SDS011;63131;52.298;8.056;2023-07-13T07:38:11;6.90;;;2.50;;
74624;SDS011;63131;52.298;8.056;2023-07-13T07:40:37;10.20;;;2.97;;
74624;SDS011;63131;52.298;8.056;2023-07-13T07:43:02;9.98;;;2.97;;
74624;SDS011;63131;52.298;8.056;2023-07-13T07:45:27;9.70;;;2.30;;
74624;SDS011;63131;52.298;8.056;2023-07-13T07:47:52;9.53;;;2.47;;
74624;SDS011;63131;52.298;8.056;2023-07-13T07:50:19;8.88;;;2.47;;
74624;SDS011;63131;52.298;8.056;2023-07-13T07:52:45;8.63;;;2.40;;
74624;SDS011;63131;52.298;8.056;2023-07-13T07:55:10;6.60;;;2.50;;
74624;SDS011;63131;52.298;8.056;2023-07-13T07:57:35;7.73;;;2.57;;
74624;SDS011;63131;52.298;8.056;2023-07-13T08:00:00;6.53;;;2.28;;
74624;SDS011;63131;52.298;8.056;2023-07-13T08:02:26;6.20;;;1.93;;
74624;SDS011;63131;52.298;8.056;2023-07-13T08:04:51;7.00;;;2.10;;
74624;SDS011;63131;52.298;8.056;2023-07-13T08:07:16;10.15;;;2.70;;
74624;SDS011;63131;52.298;8.056;2023-07-13T08:09:41;7.33;;;1.93;;
74624;SDS011;63131;52.298;8.056;2023-07-13T08:12:07;7.63;;;2.00;;
74624;SDS011;63131;52.298;8.056;2023-07-13T08:14:32;6.80;;;2.38;;
74624;SDS011;63131;52.298;8.056;2023-07-13T08:16:58;10.02;;;2.63;;
74624;SDS011;63131;52.298;8.056;2023-07-13T08:19:23;6.40;;;2.05;;
74624;SDS011;63131;52.298;8.056;2023-07-13T08:21:48;7.67;;;2.20;;
74624;SDS011;63131;52.298;8.056;2023-07-13T08:24:14;6.68;;;2.15;;
74624;SDS011;63131;52.298;8.056;2023-07-13T08:26:39;6.45;;;1.92;;
74624;SDS011;63131;52.298;8.056;2023-07-13T08:29:04;6.30;;;2.13;;
74624;SDS011;63131;52.298;8.056;2023-07-13T08:31:29;5.68;;;1.90;;
74624;SDS011;63131;52.298;8.056;2023-07-13T08:33:55;8.53;;;2.00;;
74624;SDS011;63131;52.298;8.056;2023-07-13T08:36:20;8.03;;;2.23;;
74624;SDS011;63131;52.298;8.056;2023-07-13T08:38:45;6.40;;;2.07;;
74624;SDS011;63131;52.298;8.056;2023-07-13T08:41:12;7.23;;;2.20;;
74624;SDS011;63131;52.298;8.056;2023-07-13T08:43:38;4.85;;;1.77;;
74624;SDS011;63131;52.298;8.056;2023-07-13T08:46:19;6.15;;;2.05;;
74624;SDS011;63131;52.298;8.056;2023-07-13T08:48:50;6.55;;;2.58;;
74624;SDS011;63131;52.298;8.056;2023-07-13T08:51:28;7.00;;;2.13;;
74624;SDS011;63131;52.298;8.056;2023-07-13T08:53:55;6.30;;;2.33;;
74624;SDS011;63131;52.298;8.056;2023-07-13T08:56:24;9.50;;;2.10;;
74624;SDS011;63131;52.298;8.056;2023-07-13T08:58:51;8.38;;;2.30;;
74624;SDS011;63131;52.298;8.056;2023-07-13T09:06:34;7.28;;;2.78;;
74624;SDS011;63131;52.298;8.056;2023-07-13T09:09:14;6.68;;;2.47;;
74624;SDS011;63131;52.298;8.056;2023-07-13T09:11:56;6.57;;;2.47;;
74624;SDS011;63131;52.298;8.056;2023-07-13T09:14:34;7.75;;;2.50;;
74624;SDS011;63131;52.298;8.056;2023-07-13T09:17:00;4.80;;;2.08;;
74624;SDS011;63131;52.298;8.056;2023-07-13T09:19:26;7.35;;;2.53;;
74624;SDS011;63131;52.298;8.056;2023-07-13T09:21:53;7.28;;;2.97;;
74624;SDS011;63131;52.298;8.056;2023-07-13T09:26:50;7.25;;;2.55;;
74624;SDS011;63131;52.298;8.056;2023-07-13T09:29:22;6.90;;;2.03;;
74624;SDS011;63131;52.298;8.056;2023-07-13T09:31:52;7.47;;;3.22;;
74624;SDS011;63131;52.298;8.056;2023-07-13T09:34:18;6.78;;;2.10;;
74624;SDS011;63131;52.298;8.056;2023-07-13T09:36:43;6.53;;;2.10;;
74624;SDS011;63131;52.298;8.056;2023-07-13T09:39:14;7.07;;;2.58;;
74624;SDS011;63131;52.298;8.056;2023-07-13T09:41:41;9.43;;;2.72;;
74624;SDS011;63131;52.298;8.056;2023-07-13T09:44:12;5.45;;;2.10;;
74624;SDS011;63131;52.298;8.056;2023-07-13T09:46:39;7.57;;;2.70;;
74624;SDS011;63131;52.298;8.056;2023-07-13T09:49:05;7.95;;;2.53;;
74624;SDS011;63131;52.298;8.056;2023-07-13T09:51:30;7.67;;;2.93;;
74624;SDS011;63131;52.298;8.056;2023-07-13T09:53:55;8.83;;;3.00;;
74624;SDS011;63131;52.298;8.056;2023-07-13T09:56:22;9.50;;;2.80;;
74624;SDS011;63131;52.298;8.056;2023-07-13T09:58:48;7.00;;;2.70;;
74624;SDS011;63131;52.298;8.056;2023-07-13T10:01:13;10.77;;;2.60;;
74624;SDS011;63131;52.298;8.056;2023-07-13T10:03:39;8.23;;;2.47;;
74624;SDS011;63131;52.298;8.056;2023-07-13T10:06:16;8.55;;;2.50;;
74624;SDS011;63131;52.298;8.056;2023-07-13T10:08:43;6.72;;;2.30;;
74624;SDS011;63131;52.298;8.056;2023-07-13T10:11:10;7.60;;;2.80;;
74624;SDS011;63131;52.298;8.056;2023-07-13T10:13:39;7.43;;;2.42;;
74624;SDS011;63131;52.298;8.056;2023-07-13T10:16:06;8.68;;;2.65;;
74624;SDS011;63131;52.298;8.056;2023-07-13T10:18:36;6.57;;;2.70;;
74624;SDS011;63131;52.298;8.056;2023-07-13T10:23:37;7.03;;;3.20;;
74624;SDS011;63131;52.298;8.056;2023-07-13T10:26:02;8.23;;;2.97;;
74624;SDS011;63131;52.298;8.056;2023-07-13T10:28:33;7.93;;;3.20;;
74624;SDS011;63131;52.298;8.056;2023-07-13T10:30:59;6.82;;;2.60;;
74624;SDS011;63131;52.298;8.056;2023-07-13T10:33:26;11.45;;;3.22;;
74624;SDS011;63131;52.298;8.056;2023-07-13T10:35:53;8.15;;;2.20;;
74624;SDS011;63131;52.298;8.056;2023-07-13T10:38:22;6.80;;;2.30;;
74624;SDS011;63131;52.298;8.056;2023-07-13T10:41:01;8.13;;;2.55;;
74624;SDS011;63131;52.298;8.056;2023-07-13T10:43:34;7.63;;;2.70;;
74624;SDS011;63131;52.298;8.056;2023-07-13T10:46:01;8.05;;;2.88;;
74624;SDS011;63131;52.298;8.056;2023-07-13T10:48:27;8.05;;;2.75;;
74624;SDS011;63131;52.298;8.056;2023-07-13T10:50:54;7.38;;;2.83;;
74624;SDS011;63131;52.298;8.056;2023-07-13T10:58:14;6.82;;;2.20;;
74624;SDS011;63131;52.298;8.056;2023-07-13T11:00:47;8.15;;;2.50;;
74624;SDS011;63131;52.298;8.056;2023-07-13T11:03:14;6.40;;;2.50;;
74624;SDS011;63131;52.298;8.056;2023-07-13T11:05:40;7.63;;;2.92;;
74624;SDS011;63131;52.298;8.056;2023-07-13T11:10:50;6.20;;;2.72;;
74624;SDS011;63131;52.298;8.056;2023-07-13T11:15:59;7.60;;;2.53;;
74624;SDS011;63131;52.298;8.056;2023-07-13T11:18:25;7.43;;;3.20;;
74624;SDS011;63131;52.298;8.056;2023-07-13T11:20:50;9.20;;;2.70;;
74624;SDS011;63131;52.298;8.056;2023-07-13T11:25:41;7.78;;;2.25;;
74624;SDS011;63131;52.298;8.056;2023-07-13T11:30:35;6.30;;;2.37;;
74624;SDS011;63131;52.298;8.056;2023-07-13T11:33:14;6.88;;;2.40;;
74624;SDS011;63131;52.298;8.056;2023-07-13T11:35:46;8.35;;;2.30;;
74624;SDS011;63131;52.298;8.056;2023-07-13T11:38:20;10.85;;;3.03;;
74624;SDS011;63131;52.298;8.056;2023-07-13T11:40:46;8.00;;;2.38;;
74624;SDS011;63131;52.298;8.056;2023-07-13T11:43:13;7.85;;;2.50;;
74624;SDS011;63131;52.298;8.056;2023-07-13T11:45:39;8.63;;;2.53;;
74624;SDS011;63131;52.298;8.056;2023-07-13T11:48:04;8.07;;;2.60;;
74624;SDS011;63131;52.298;8.056;2023-07-13T11:50:29;6.70;;;2.08;;
74624;SDS011;63131;52.298;8.056;2023-07-13T11:52:55;8.25;;;2.20;;
74624;SDS011;63131;52.298;8.056;2023-07-13T11:55:21;7.35;;;2.30;;
74624;SDS011;63131;52.298;8.056;2023-07-13T11:57:54;6.80;;;2.38;;
74624;SDS011;63131;52.298;8.056;2023-07-13T12:00:22;7.72;;;2.55;;
74624;SDS011;63131;52.298;8.056;2023-07-13T12:02:48;6.88;;;2.53;;
74624;SDS011;63131;52.298;8.056;2023-07-13T12:05:15;7.57;;;2.50;;
74624;SDS011;63131;52.298;8.056;2023-07-13T12:07:42;6.22;;;2.20;;
74624;SDS011;63131;52.298;8.056;2023-07-13T12:10:15;7.68;;;2.22;;
74624;SDS011;63131;52.298;8.056;2023-07-13T12:12:50;9.18;;;2.97;;
74624;SDS011;63131;52.298;8.056;2023-07-13T12:15:16;5.78;;;2.08;;
74624;SDS011;63131;52.298;8.056;2023-07-13T12:17:41;5.43;;;1.90;;
74624;SDS011;63131;52.298;8.056;2023-07-13T12:20:37;6.00;;;2.03;;
74624;SDS011;63131;52.298;8.056;2023-07-13T12:23:05;6.18;;;2.15;;
74624;SDS011;63131;52.298;8.056;2023-07-13T12:25:30;8.05;;;1.88;;
74624;SDS011;63131;52.298;8.056;2023-07-13T12:27:55;5.45;;;1.98;;
74624;SDS011;63131;52.298;8.056;2023-07-13T12:32:58;8.68;;;2.70;;
74624;SDS011;63131;52.298;8.056;2023-07-13T12:35:24;7.28;;;2.70;;
74624;SDS011;63131;52.298;8.056;2023-07-13T12:37:50;6.80;;;2.28;;
74624;SDS011;63131;52.298;8.056;2023-07-13T12:40:16;8.52;;;2.63;;
74624;SDS011;63131;52.298;8.056;2023-07-13T12:42:44;6.78;;;2.38;;
74624;SDS011;63131;52.298;8.056;2023-07-13T12:45:21;6.43;;;2.20;;
74624;SDS011;63131;52.298;8.056;2023-07-13T12:47:52;4.63;;;1.60;;
74624;SDS011;63131;52.298;8.056;2023-07-13T12:50:19;5.47;;;2.10;;
74624;SDS011;63131;52.298;8.056;2023-07-13T12:52:49;5.55;;;1.65;;
74624;SDS011;63131;52.298;8.056;2023-07-13T12:55:19;9.75;;;2.20;;
74624;SDS011;63131;52.298;8.056;2023-07-13T12:57:52;5.93;;;1.85;;
74624;SDS011;63131;52.298;8.056;2023-07-13T13:02:55;8.07;;;2.25;;
74624;SDS011;63131;52.298;8.056;2023-07-13T13:05:21;6.07;;;2.10;;
74624;SDS011;63131;52.298;8.056;2023-07-13T13:07:48;5.68;;;2.17;;
74624;SDS011;63131;52.298;8.056;2023-07-13T13:10:13;7.93;;;2.20;;
74624;SDS011;63131;52.298;8.056;2023-07-13T13:12:39;6.82;;;2.40;;
74624;SDS011;63131;52.298;8.056;2023-07-13T13:15:07;9.15;;;2.60;;
74624;SDS011;63131;52.298;8.056;2023-07-13T13:17:33;7.18;;;2.70;;
74624;SDS011;63131;52.298;8.056;2023-07-13T13:19:58;5.85;;;2.03;;
74624;SDS011;63131;52.298;8.056;2023-07-13T13:22:23;6.20;;;2.53;;
74624;SDS011;63131;52.298;8.056;2023-07-13T13:24:48;6.20;;;2.47;;
74624;SDS011;63131;52.298;8.056;2023-07-13T13:27:18;8.13;;;2.97;;
74624;SDS011;63131;52.298;8.056;2023-07-13T13:29:44;7.38;;;2.85;;
74624;SDS011;63131;52.298;8.056;2023-07-13T13:32:13;7.45;;;2.97;;
74624;SDS011;63131;52.298;8.056;2023-07-13T13:34:39;6.32;;;2.60;;
74624;SDS011;63131;52.298;8.056;2023-07-13T13:37:05;6.13;;;2.40;;
74624;SDS011;63131;52.298;8.056;2023-07-13T13:39:36;6.95;;;2.85;;
74624;SDS011;63131;52.298;8.056;2023-07-13T13:42:01;7.70;;;2.95;;
74624;SDS011;63131;52.298;8.056;2023-07-13T13:44:27;6.50;;;2.58;;
74624;SDS011;63131;52.298;8.056;2023-07-13T13:46:53;7.68;;;2.80;;
74624;SDS011;63131;52.298;8.056;2023-07-13T13:49:21;7.32;;;3.03;;
74624;SDS011;63131;52.298;8.056;2023-07-13T13:51:46;9.18;;;3.75;;
74624;SDS011;63131;52.298;8.056;2023-07-13T13:54:15;7.50;;;2.70;;
74624;SDS011;63131;52.298;8.056;2023-07-13T13:56:44;8.90;;;3.10;;
74624;SDS011;63131;52.298;8.056;2023-07-13T13:59:10;13.80;;;4.10;;
74624;SDS011;63131;52.298;8.056;2023-07-13T14:01:36;9.48;;;4.00;;
74624;SDS011;63131;52.298;8.056;2023-07-13T14:04:01;9.07;;;4.05;;
74624;SDS011;63131;52.298;8.056;2023-07-13T14:06:26;10.33;;;3.80;;
74624;SDS011;63131;52.298;8.056;2023-07-13T14:08:53;10.73;;;3.97;;
74624;SDS011;63131;52.298;8.056;2023-07-13T14:11:20;8.27;;;3.17;;
74624;SDS011;63131;52.298;8.056;2023-07-13T14:13:53;10.27;;;4.30;;
74624;SDS011;63131;52.298;8.056;2023-07-13T14:16:20;11.13;;;4.07;;
74624;SDS011;63131;52.298;8.056;2023-07-13T14:18:46;9.80;;;4.10;;
74624;SDS011;63131;52.298;8.056;2023-07-13T14:21:15;9.60;;;3.80;;
74624;SDS011;63131;52.298;8.056;2023-07-13T14:23:41;11.25;;;3.95;;
74624;SDS011;63131;52.298;8.056;2023-07-13T14:28:48;8.60;;;3.78;;
74624;SDS011;63131;52.298;8.056;2023-07-13T14:31:15;8.43;;;3.78;;
74624;SDS011;63131;52.298;8.056;2023-07-13T14:33:40;9.20;;;3.60;;
74624;SDS011;63131;52.298;8.056;2023-07-13T14:36:51;8.80;;;3.30;;
74624;SDS011;63131;52.298;8.056;2023-07-13T14:38:51;7.60;;;3.17;;
74624;SDS011;63131;52.298;8.056;2023-07-13T14:41:16;8.13;;;3.33;;
74624;SDS011;63131;52.298;8.056;2023-07-13T14:43:41;10.53;;;3.77;;
74624;SDS011;63131;52.298;8.056;2023-07-13T14:46:07;7.00;;;3.40;;
74624;SDS011;63131;52.298;8.056;2023-07-13T14:48:33;8.90;;;3.83;;
74624;SDS011;63131;52.298;8.056;2023-07-13T14:50:59;8.55;;;2.97;;
74624;SDS011;63131;52.298;8.056;2023-07-13T14:53:25;8.30;;;3.90;;
74624;SDS011;63131;52.298;8.056;2023-07-13T14:55:50;9.07;;;4.22;;
74624;SDS011;63131;52.298;8.056;2023-07-13T14:58:15;8.40;;;4.03;;
74624;SDS011;63131;52.298;8.056;2023-07-13T15:00:40;8.70;;;3.70;;
74624;SDS011;63131;52.298;8.056;2023-07-13T15:03:08;7.40;;;3.08;;
74624;SDS011;63131;52.298;8.056;2023-07-13T15:05:41;7.38;;;3.13;;
74624;SDS011;63131;52.298;8.056;2023-07-13T15:08:07;8.90;;;3.87;;
74624;SDS011;63131;52.298;8.056;2023-07-13T15:10:33;8.30;;;2.72;;
74624;SDS011;63131;52.298;8.056;2023-07-13T15:13:01;7.63;;;3.17;;
74624;SDS011;63131;52.298;8.056;2023-07-13T15:15:37;6.82;;;2.47;;
74624;SDS011;63131;52.298;8.056;2023-07-13T15:18:04;7.55;;;3.30;;
74624;SDS011;63131;52.298;8.056;2023-07-13T15:20:32;8.25;;;3.13;;
74624;SDS011;63131;52.298;8.056;2023-07-13T15:22:59;8.18;;;3.47;;
74624;SDS011;63131;52.298;8.056;2023-07-13T15:25:25;7.13;;;3.27;;
74624;SDS011;63131;52.298;8.056;2023-07-13T15:27:51;10.43;;;4.38;;
74624;SDS011;63131;52.298;8.056;2023-07-13T15:30:17;7.82;;;3.30;;
74624;SDS011;63131;52.298;8.056;2023-07-13T15:32:42;8.47;;;3.37;;
74624;SDS011;63131;52.298;8.056;2023-07-13T15:35:15;8.75;;;3.50;;
74624;SDS011;63131;52.298;8.056;2023-07-13T15:37:41;9.60;;;4.00;;
74624;SDS011;63131;52.298;8.056;2023-07-13T15:40:06;10.65;;;4.05;;
74624;SDS011;63131;52.298;8.056;2023-07-13T15:42:32;8.18;;;3.60;;
74624;SDS011;63131;52.298;8.056;2023-07-13T15:44:57;9.40;;;3.95;;
74624;SDS011;63131;52.298;8.056;2023-07-13T15:47:23;7.63;;;2.88;;
74624;SDS011;63131;52.298;8.056;2023-07-13T15:49:48;7.03;;;2.90;;
74624;SDS011;63131;52.298;8.056;2023-07-13T15:52:23;7.10;;;3.00;;
74624;SDS011;63131;52.298;8.056;2023-07-13T15:54:48;7.05;;;2.75;;
74624;SDS011;63131;52.298;8.056;2023-07-13T15:57:14;8.38;;;3.38;;
74624;SDS011;63131;52.298;8.056;2023-07-13T15:59:39;6.65;;;2.70;;
74624;SDS011;63131;52.298;8.056;2023-07-13T16:02:11;9.10;;;3.33;;
74624;SDS011;63131;52.298;8.056;2023-07-13T16:04:37;8.18;;;2.88;;
74624;SDS011;63131;52.298;8.056;2023-07-13T16:07:02;7.55;;;2.88;;
74624;SDS011;63131;52.298;8.056;2023-07-13T16:09:27;7.10;;;3.17;;
74624;SDS011;63131;52.298;8.056;2023-07-13T16:11:53;6.97;;;2.83;;
74624;SDS011;63131;52.298;8.056;2023-07-13T16:14:21;6.97;;;2.92;;
74624;SDS011;63131;52.298;8.056;2023-07-13T16:16:49;8.00;;;3.80;;
74624;SDS011;63131;52.298;8.056;2023-07-13T16:19:15;6.35;;;2.60;;
74624;SDS011;63131;52.298;8.056;2023-07-13T16:21:44;8.50;;;2.97;;
74624;SDS011;63131;52.298;8.056;2023-07-13T16:24:15;5.93;;;2.13;;
74624;SDS011;63131;52.298;8.056;2023-07-13T16:26:41;6.07;;;2.30;;
74624;SDS011;63131;52.298;8.056;2023-07-13T16:29:12;9.40;;;4.95;;
74624;SDS011;63131;52.298;8.056;2023-07-13T16:31:38;6.55;;;2.40;;
74624;SDS011;63131;52.298;8.056;2023-07-13T16:34:04;5.90;;;2.08;;
74624;SDS011;63131;52.298;8.056;2023-07-13T16:36:29;7.00;;;2.65;;
74624;SDS011;63131;52.298;8.056;2023-07-13T16:38:55;7.65;;;2.47;;
74624;SDS011;63131;52.298;8.056;2023-07-13T16:41:21;6.88;;;2.42;;
74624;SDS011;63131;52.298;8.056;2023-07-13T16:43:46;6.38;;;2.42;;
74624;SDS011;63131;52.298;8.056;2023-07-13T16:46:11;7.03;;;2.40;;
74624;SDS011;63131;52.298;8.056;2023-07-13T16:48:39;7.53;;;2.38;;
74624;SDS011;63131;52.298;8.056;2023-07-13T16:51:04;7.90;;;2.63;;